createdAt,value
2023-01-10T00:01:32.735Z,12.43
2023-01-10T00:04:00.172Z,9.47
2023-01-10T00:06:27.985Z,11.98
2023-01-10T00:08:57.367Z,12.27
2023-01-10T00:11:43.810Z,11.70
2023-01-10T00:14:12.274Z,13.40
2023-01-10T00:16:40.755Z,11.40
2023-01-10T00:19:10.549Z,11.45
2023-01-10T00:21:39.722Z,11.65
2023-01-10T00:24:19.793Z,12.90
2023-01-10T00:26:51.280Z,12.07
2023-01-10T00:29:20.911Z,11.90
2023-01-10T00:31:48.952Z,11.57
2023-01-10T00:34:16.952Z,12.07
2023-01-10T00:36:47.339Z,12.18
2023-01-10T00:39:18.207Z,11.80
2023-01-10T00:42:04.465Z,11.45
2023-01-10T00:44:32.274Z,11.73
2023-01-10T00:47:00.033Z,10.98
2023-01-10T00:49:27.895Z,11.93
2023-01-10T00:51:58.331Z,11.65
2023-01-10T00:54:26.549Z,11.05
2023-01-10T00:56:54.361Z,8.98
2023-01-10T00:59:23.152Z,8.27
2023-01-10T01:01:51.861Z,10.35
2023-01-10T01:04:19.591Z,9.55
2023-01-10T01:06:47.824Z,10.43
2023-01-10T01:09:15.732Z,10.15
2023-01-10T01:11:43.382Z,10.73
2023-01-10T01:14:10.960Z,10.48
2023-01-10T01:16:38.415Z,10.18
2023-01-10T01:19:05.961Z,10.77
2023-01-10T01:21:33.479Z,10.35
2023-01-10T01:24:00.944Z,10.43
2023-01-10T01:26:28.777Z,10.00
2023-01-10T01:28:56.968Z,10.43
2023-01-10T01:31:24.891Z,10.90
2023-01-10T01:33:52.711Z,10.63
2023-01-10T01:36:20.172Z,10.40
2023-01-10T01:38:47.932Z,11.35
2023-01-10T01:41:34.102Z,10.65
2023-01-10T01:44:07.986Z,10.88
2023-01-10T01:46:39.226Z,10.38
2023-01-10T01:49:15.064Z,10.73
2023-01-10T01:51:45.904Z,10.32
2023-01-10T01:54:14.298Z,10.65
2023-01-10T01:56:51.885Z,10.13
2023-01-10T01:59:26.421Z,11.63
2023-01-10T02:02:01.863Z,10.27
2023-01-10T02:04:40.877Z,10.70
2023-01-10T02:09:43.711Z,10.15
2023-01-10T02:12:14.028Z,10.70
2023-01-10T02:14:44.991Z,10.85
2023-01-10T02:17:13.203Z,10.07
2023-01-10T02:20:01.710Z,10.57
2023-01-10T02:22:35.392Z,10.63
2023-01-10T02:25:41.451Z,9.50
2023-01-10T02:28:20.376Z,9.98
2023-01-10T02:33:29.268Z,9.35
2023-01-10T02:36:29.045Z,9.68
2023-01-10T02:39:17.102Z,10.00
2023-01-10T02:42:04.189Z,9.90
2023-01-10T02:44:51.114Z,10.48
2023-01-10T02:47:19.107Z,10.70
2023-01-10T02:49:49.564Z,10.23
2023-01-10T02:52:29.251Z,10.57
2023-01-10T02:55:01.373Z,10.30
2023-01-10T02:57:47.631Z,10.18
2023-01-10T03:00:42.192Z,10.25
2023-01-10T03:03:47.062Z,10.48
2023-01-10T03:06:36.723Z,9.98
2023-01-10T03:09:16.622Z,9.30
2023-01-10T03:11:47.038Z,9.07
2023-01-10T03:14:17.734Z,10.13
2023-01-10T03:16:51.119Z,10.30
2023-01-10T03:19:22.886Z,9.00
2023-01-10T03:21:57.034Z,9.48
2023-01-10T03:24:31.469Z,9.45
2023-01-10T03:27:08.144Z,9.68
2023-01-10T03:29:48.588Z,9.18
2023-01-10T03:32:19.429Z,9.63
2023-01-10T03:34:47.387Z,9.68
2023-01-10T03:37:26.782Z,7.82
2023-01-10T03:40:30.656Z,10.52
2023-01-10T03:43:24.235Z,10.38
2023-01-10T03:45:54.273Z,10.02
2023-01-10T03:48:24.303Z,10.02
2023-01-10T03:50:52.377Z,10.07
2023-01-10T03:53:20.036Z,7.80
2023-01-10T03:55:47.900Z,7.77
2023-01-10T03:58:17.435Z,9.73
2023-01-10T04:00:45.194Z,9.57
2023-01-10T04:03:12.966Z,9.48
2023-01-10T04:05:41.228Z,10.00
2023-01-10T04:08:09.087Z,10.13
2023-01-10T04:10:37.850Z,7.55
2023-01-10T04:13:06.174Z,8.85
2023-01-10T04:15:33.651Z,7.93
2023-01-10T04:18:01.133Z,10.32
2023-01-10T04:20:28.716Z,10.38
2023-01-10T04:22:56.317Z,10.15
2023-01-10T04:25:24.473Z,9.38
2023-01-10T04:27:52.820Z,7.72
2023-01-10T04:30:20.555Z,9.60
2023-01-10T04:32:48.164Z,9.48
2023-01-10T04:35:15.676Z,9.70
2023-01-10T04:37:43.447Z,10.02
2023-01-10T04:40:11.542Z,10.00
2023-01-10T04:42:39.086Z,10.10
2023-01-10T04:45:07.194Z,9.25
2023-01-10T04:47:34.605Z,7.47
2023-01-10T04:50:02.178Z,9.68
2023-01-10T04:52:29.664Z,8.60
2023-01-10T04:54:57.410Z,9.60
2023-01-10T04:57:24.920Z,9.05
2023-01-10T04:59:54.161Z,9.32
2023-01-10T05:02:22.211Z,10.27
2023-01-10T05:04:49.731Z,9.73
2023-01-10T05:07:17.515Z,10.30
2023-01-10T05:09:45.295Z,9.02
2023-01-10T05:12:13.061Z,9.45
2023-01-10T05:14:40.463Z,9.55
2023-01-10T05:17:07.919Z,9.35
2023-01-10T05:19:35.717Z,9.20
2023-01-10T05:22:03.315Z,9.40
2023-01-10T05:24:31.059Z,8.93
2023-01-10T05:26:58.732Z,8.95
2023-01-10T05:29:26.279Z,8.95
2023-01-10T05:31:54.144Z,8.43
2023-01-10T05:34:21.714Z,9.10
2023-01-10T05:36:49.223Z,9.05
2023-01-10T05:39:17.044Z,9.32
2023-01-10T05:41:44.851Z,8.93
2023-01-10T05:44:14.127Z,9.02
2023-01-10T05:46:42.365Z,9.45
2023-01-10T05:49:09.937Z,9.63
2023-01-10T05:51:37.400Z,9.05
2023-01-10T05:54:04.950Z,8.50
2023-01-10T05:56:32.396Z,9.23
2023-01-10T05:59:17.199Z,8.68
2023-01-10T06:01:48.538Z,8.68
2023-01-10T06:04:16.175Z,8.32
2023-01-10T06:06:43.609Z,8.68
2023-01-10T06:09:11.184Z,9.20
2023-01-10T06:11:39.032Z,9.50
2023-01-10T06:14:07.833Z,9.02
2023-01-10T06:16:35.348Z,9.10
2023-01-10T06:19:02.836Z,8.90
2023-01-10T06:21:30.355Z,8.82
2023-01-10T06:23:58.224Z,8.38
2023-01-10T06:26:25.699Z,8.23
2023-01-10T06:28:53.523Z,9.02
2023-01-10T06:31:22.579Z,9.43
2023-01-10T06:33:51.315Z,7.57
2023-01-10T06:36:18.838Z,8.95
2023-01-10T06:38:46.812Z,8.52
2023-01-10T06:41:14.320Z,8.73
2023-01-10T06:43:46.263Z,9.45
2023-01-10T06:46:16.668Z,9.10
2023-01-10T06:48:45.712Z,8.52
2023-01-10T06:51:14.926Z,9.07
2023-01-10T06:53:43.083Z,8.70
2023-01-10T06:56:11.356Z,9.70
2023-01-10T06:58:39.053Z,8.10
2023-01-10T07:01:12.961Z,8.98
2023-01-10T07:03:41.649Z,8.30
2023-01-10T07:06:10.327Z,6.95
2023-01-10T07:08:39.825Z,8.98
2023-01-10T07:11:08.977Z,8.55
2023-01-10T07:16:10.381Z,8.52
2023-01-10T07:18:40.138Z,8.13
2023-01-10T07:21:08.395Z,8.30
2023-01-10T07:23:36.280Z,6.78
2023-01-10T07:26:05.892Z,8.57
2023-01-10T07:28:36.483Z,8.32
2023-01-10T07:31:06.046Z,8.40
2023-01-10T07:33:33.895Z,9.65
2023-01-10T07:36:02.044Z,8.88
2023-01-10T07:38:29.866Z,9.18
2023-01-10T07:40:57.716Z,8.50
2023-01-10T07:43:26.058Z,8.85
2023-01-10T07:45:53.909Z,10.10
2023-01-10T07:48:22.098Z,8.82
2023-01-10T07:50:49.536Z,8.85
2023-01-10T07:53:17.702Z,9.00
2023-01-10T07:55:46.179Z,8.65
2023-01-10T07:58:14.560Z,7.03
2023-01-10T08:00:42.423Z,8.45
2023-01-10T08:03:13.454Z,9.18
2023-01-10T08:05:41.057Z,8.75
2023-01-10T08:08:10.576Z,10.00
2023-01-10T08:10:39.987Z,9.50
2023-01-10T08:13:18.339Z,9.60
2023-01-10T08:18:22.169Z,9.05
2023-01-10T08:20:51.442Z,9.10
2023-01-10T08:23:19.798Z,9.45
2023-01-10T08:25:47.563Z,9.90
2023-01-10T08:28:15.552Z,10.23
2023-01-10T08:30:43.733Z,11.85
2023-01-10T08:33:12.412Z,12.38
2023-01-10T08:35:42.437Z,10.02
2023-01-10T08:38:11.346Z,10.68
2023-01-10T08:40:39.174Z,10.18
2023-01-10T08:43:09.983Z,7.13
2023-01-10T08:45:38.509Z,10.02
2023-01-10T08:48:06.954Z,9.65
2023-01-10T08:50:34.985Z,10.02
2023-01-10T08:53:02.647Z,10.68
2023-01-10T08:55:31.352Z,9.77
2023-01-10T08:58:00.837Z,10.32
2023-01-10T09:00:29.408Z,10.57
2023-01-10T09:02:57.574Z,12.35
2023-01-10T09:05:27.781Z,10.52
2023-01-10T09:08:00.853Z,9.82
2023-01-10T09:10:30.110Z,10.07
2023-01-10T09:13:01.594Z,11.30
2023-01-10T09:15:35.306Z,10.02
2023-01-10T09:18:06.025Z,8.65
2023-01-10T09:20:36.499Z,9.80
2023-01-10T09:23:09.937Z,9.23
2023-01-10T09:25:38.198Z,9.73
2023-01-10T09:28:06.732Z,8.67
2023-01-10T09:30:34.716Z,9.63
2023-01-10T09:33:03.571Z,10.10
2023-01-10T09:38:01.421Z,8.45
2023-01-10T09:40:38.182Z,10.15
2023-01-10T09:43:16.837Z,11.65
2023-01-10T09:48:33.890Z,9.00
2023-01-10T09:51:04.454Z,9.60
2023-01-10T09:53:34.633Z,8.85
2023-01-10T09:56:02.437Z,9.73
2023-01-10T09:58:34.507Z,10.05
2023-01-10T10:01:11.538Z,8.90
2023-01-10T10:04:18.996Z,8.88
2023-01-10T10:06:50.237Z,9.98
2023-01-10T10:09:23.739Z,9.18
2023-01-10T10:12:02.189Z,9.93
2023-01-10T10:14:45.754Z,9.77
2023-01-10T10:17:19.182Z,12.05
2023-01-10T10:20:23.938Z,10.60
2023-01-10T10:23:03.881Z,10.27
2023-01-10T10:25:46.348Z,12.95
2023-01-10T10:28:16.981Z,10.45
2023-01-10T10:30:44.664Z,9.88
2023-01-10T10:33:29.123Z,10.80
2023-01-10T10:36:03.364Z,11.75
2023-01-10T10:38:37.511Z,10.88
2023-01-10T10:41:15.669Z,11.02
2023-01-10T10:43:47.916Z,7.90
2023-01-10T10:46:20.009Z,10.65
2023-01-10T10:49:01.254Z,10.80
2023-01-10T10:51:41.686Z,11.02
2023-01-10T10:54:13.957Z,10.65
2023-01-10T10:56:41.848Z,11.93
2023-01-10T10:59:12.407Z,11.23
2023-01-10T11:01:43.580Z,10.80
2023-01-10T11:04:15.669Z,10.95
2023-01-10T11:06:49.028Z,10.82
2023-01-10T11:09:28.382Z,10.48
2023-01-10T11:11:56.962Z,10.30
2023-01-10T11:14:51.648Z,11.20
2023-01-10T11:17:24.214Z,11.55
2023-01-10T11:19:58.855Z,10.35
2023-01-10T11:22:33.841Z,10.88
2023-01-10T11:25:03.192Z,11.57
2023-01-10T11:27:48.629Z,11.73
2023-01-10T11:30:28.309Z,11.63
2023-01-10T11:33:05.952Z,11.60
2023-01-10T11:35:37.108Z,12.90
2023-01-10T11:38:22.136Z,12.75
2023-01-10T11:41:00.609Z,11.57
2023-01-10T11:43:29.663Z,9.18
2023-01-10T11:46:15.646Z,13.55
2023-01-10T11:49:08.640Z,12.82
2023-01-10T11:51:45.876Z,14.43
2023-01-10T11:54:26.019Z,12.77
2023-01-10T11:57:15.062Z,13.20
2023-01-10T12:00:02.078Z,12.98
2023-01-10T12:02:35.703Z,9.68
2023-01-10T12:05:09.179Z,13.10
2023-01-10T12:07:56.479Z,13.50
2023-01-10T12:10:27.284Z,12.95
2023-01-10T12:12:58.235Z,13.90
2023-01-10T12:15:31.207Z,13.27
2023-01-10T12:18:01.347Z,17.58
2023-01-10T12:20:40.520Z,17.85
2023-01-10T12:23:17.916Z,18.20
2023-01-10T12:25:46.899Z,18.63
2023-01-10T12:28:28.762Z,19.48
2023-01-10T12:31:00.066Z,18.48
2023-01-10T12:33:35.763Z,22.70
2023-01-10T12:36:24.765Z,21.85
2023-01-10T12:39:03.808Z,15.05
2023-01-10T12:44:33.172Z,15.13
2023-01-10T12:47:13.192Z,15.65
2023-01-10T12:50:13.586Z,14.82
2023-01-10T12:52:52.486Z,15.65
2023-01-10T12:55:23.442Z,14.70
2023-01-10T12:57:54.606Z,15.52
2023-01-10T13:00:27.125Z,17.05
2023-01-10T13:02:59.685Z,15.52
2023-01-10T13:05:30.253Z,14.45
2023-01-10T13:08:07.303Z,14.50
2023-01-10T13:10:39.798Z,13.70
2023-01-10T13:13:52.441Z,14.32
2023-01-10T13:16:35.417Z,14.07
2023-01-10T13:19:12.478Z,14.55
2023-01-10T13:21:42.094Z,17.73
2023-01-10T13:24:15.564Z,17.15
2023-01-10T13:26:58.970Z,14.88
2023-01-10T13:29:38.576Z,13.80
2023-01-10T13:32:29.670Z,13.88
2023-01-10T13:35:13.606Z,12.90
2023-01-10T13:37:44.415Z,13.93
2023-01-10T13:40:27.938Z,14.90
2023-01-10T13:43:36.731Z,15.60
2023-01-10T13:46:19.342Z,14.80
2023-01-10T13:48:50.036Z,15.00
2023-01-10T13:51:20.197Z,14.63
2023-01-10T13:53:55.296Z,15.48
2023-01-10T13:56:38.493Z,15.60
2023-01-10T13:59:31.408Z,13.93
2023-01-10T14:02:20.007Z,15.10
2023-01-10T14:04:54.255Z,15.80
2023-01-10T14:07:25.888Z,16.75
2023-01-10T14:10:00.327Z,16.77
2023-01-10T14:12:31.058Z,18.70
2023-01-10T14:15:07.460Z,17.52
2023-01-10T14:17:37.421Z,14.85
2023-01-10T14:20:10.848Z,17.02
2023-01-10T14:22:41.197Z,17.75
2023-01-10T14:25:18.949Z,18.58
2023-01-10T14:27:50.763Z,19.98
2023-01-10T14:30:26.084Z,17.42
2023-01-10T14:32:57.957Z,14.48
2023-01-10T14:35:34.223Z,16.83
2023-01-10T14:38:03.389Z,16.10
2023-01-10T14:40:48.222Z,14.65
2023-01-10T14:43:18.952Z,15.43
2023-01-10T14:45:54.048Z,15.55
2023-01-10T14:48:27.447Z,14.60
2023-01-10T14:51:23.844Z,16.55
2023-01-10T14:54:04.752Z,16.65
2023-01-10T14:56:44.285Z,13.02
2023-01-10T14:59:34.175Z,14.50
2023-01-10T15:02:15.637Z,14.23
2023-01-10T15:04:53.808Z,14.23
2023-01-10T15:07:23.831Z,13.90
2023-01-10T15:09:53.728Z,14.95
2023-01-10T15:12:23.440Z,14.05
2023-01-10T15:15:23.625Z,15.00
2023-01-10T15:17:51.689Z,14.32
2023-01-10T15:20:21.689Z,16.13
2023-01-10T15:22:57.686Z,14.25
2023-01-10T15:25:38.195Z,15.23
2023-01-10T15:28:17.964Z,16.63
2023-01-10T15:30:46.548Z,18.88
2023-01-10T15:33:17.367Z,17.17
2023-01-10T15:35:45.438Z,17.15
2023-01-10T15:38:16.578Z,17.80
2023-01-10T15:40:44.553Z,16.88
2023-01-10T15:43:18.589Z,14.52
2023-01-10T15:45:47.669Z,13.77
2023-01-10T15:48:34.326Z,14.18
2023-01-10T15:51:03.873Z,16.40
2023-01-10T15:54:00.587Z,26.75
2023-01-10T15:56:51.389Z,15.77
2023-01-10T15:59:24.752Z,20.13
2023-01-10T16:02:17.565Z,17.85
2023-01-10T16:04:46.426Z,20.90
2023-01-10T16:07:27.826Z,18.20
2023-01-10T16:10:01.104Z,18.63
2023-01-10T16:12:58.934Z,17.45
2023-01-10T16:15:29.346Z,16.02
2023-01-10T16:17:59.921Z,16.63
2023-01-10T16:20:32.364Z,14.77
2023-01-10T16:23:01.107Z,15.23
2023-01-10T16:25:37.543Z,16.45
2023-01-10T16:28:06.405Z,13.93
2023-01-10T16:30:35.316Z,14.13
2023-01-10T16:33:11.806Z,13.68
2023-01-10T16:35:39.586Z,14.43
2023-01-10T16:38:09.834Z,13.80
2023-01-10T16:40:40.777Z,12.57
2023-01-10T16:43:18.861Z,12.32
2023-01-10T16:45:47.940Z,12.95
2023-01-10T16:48:17.186Z,13.63
2023-01-10T16:50:47.442Z,13.95
2023-01-10T16:53:17.224Z,13.48
2023-01-10T16:55:50.218Z,14.95
2023-01-10T16:58:19.185Z,16.27
2023-01-10T17:00:53.079Z,15.85
2023-01-10T17:03:23.616Z,14.45
2023-01-10T17:05:51.462Z,16.30
2023-01-10T17:08:23.709Z,14.60
2023-01-10T17:10:56.233Z,14.30
2023-01-10T17:13:27.322Z,13.77
2023-01-10T17:15:55.053Z,15.48
2023-01-10T17:18:25.954Z,12.07
2023-01-10T17:20:54.310Z,13.98
2023-01-10T17:23:22.092Z,13.85
2023-01-10T17:25:50.705Z,14.05
2023-01-10T17:28:19.552Z,14.73
2023-01-10T17:30:47.255Z,15.55
2023-01-10T17:33:15.089Z,16.20
2023-01-10T17:35:44.892Z,14.90
2023-01-10T17:38:16.296Z,15.77
2023-01-10T17:40:46.083Z,15.13
2023-01-10T17:43:15.733Z,13.88
2023-01-10T17:45:45.639Z,15.10
2023-01-10T17:48:16.215Z,14.15
2023-01-10T17:50:46.018Z,13.43
2023-01-10T17:53:14.015Z,14.07
2023-01-10T17:55:46.017Z,13.55
2023-01-10T17:58:14.959Z,14.80
2023-01-10T18:00:43.244Z,14.65
2023-01-10T18:03:11.307Z,11.77
2023-01-10T18:05:39.984Z,10.80
2023-01-10T18:08:08.110Z,11.85
2023-01-10T18:10:35.932Z,16.50
2023-01-10T18:13:03.827Z,15.20
2023-01-10T18:15:31.606Z,14.75
2023-01-10T18:17:59.362Z,19.55
2023-01-10T18:20:27.745Z,17.90
2023-01-10T18:23:13.854Z,12.50
2023-01-10T18:25:41.570Z,15.00
2023-01-10T18:28:09.102Z,13.80
2023-01-10T18:30:36.950Z,15.93
2023-01-10T18:33:06.122Z,16.30
2023-01-10T18:35:33.770Z,14.30
2023-01-10T18:38:01.568Z,17.85
2023-01-10T18:40:29.449Z,17.48
2023-01-10T18:42:58.488Z,15.30
2023-01-10T18:45:27.599Z,14.23
2023-01-10T18:47:57.599Z,13.73
2023-01-10T18:50:26.424Z,13.57
2023-01-10T18:52:53.997Z,11.18
2023-01-10T18:55:21.950Z,15.43
2023-01-10T18:57:49.663Z,14.40
2023-01-10T19:00:17.771Z,12.60
2023-01-10T19:02:46.661Z,12.80
2023-01-10T19:07:43.362Z,11.82
2023-01-10T19:10:11.497Z,12.57
2023-01-10T19:12:41.475Z,11.70
2023-01-10T19:15:09.759Z,13.90
2023-01-10T19:17:37.641Z,13.30
2023-01-10T19:20:06.162Z,11.63
2023-01-10T19:22:33.835Z,10.95
2023-01-10T19:25:01.608Z,11.05
2023-01-10T19:27:29.798Z,11.40
2023-01-10T19:29:57.565Z,13.70
2023-01-10T19:32:25.515Z,15.82
2023-01-10T19:34:53.279Z,13.52
2023-01-10T19:37:21.556Z,12.45
2023-01-10T19:39:49.364Z,15.43
2023-01-10T19:44:45.896Z,12.88
2023-01-10T19:47:13.352Z,12.52
2023-01-10T19:49:42.089Z,18.13
2023-01-10T19:52:10.666Z,22.27
2023-01-10T19:54:39.150Z,14.73
2023-01-10T19:57:08.325Z,12.18
2023-01-10T19:59:36.575Z,12.85
2023-01-10T20:02:04.401Z,12.27
2023-01-10T20:04:32.309Z,11.80
2023-01-10T20:07:00.218Z,9.52
2023-01-10T20:09:28.236Z,11.10
2023-01-10T20:11:56.211Z,10.75
2023-01-10T20:14:25.016Z,10.27
2023-01-10T20:16:53.230Z,7.75
2023-01-10T20:19:21.765Z,7.97
2023-01-10T20:21:49.872Z,11.43
2023-01-10T20:24:21.048Z,11.85
2023-01-10T20:26:50.003Z,11.20
2023-01-10T20:29:18.787Z,10.45
2023-01-10T20:31:49.707Z,10.88
2023-01-10T20:34:17.769Z,10.68
2023-01-10T20:36:47.428Z,10.85
2023-01-10T20:39:16.816Z,11.27
2023-01-10T20:41:44.822Z,10.38
2023-01-10T20:44:12.470Z,12.50
2023-01-10T20:46:40.715Z,10.60
2023-01-10T20:49:08.349Z,11.20
2023-01-10T20:51:36.368Z,13.43
2023-01-10T20:54:05.927Z,12.27
2023-01-10T20:56:35.363Z,11.48
2023-01-10T20:59:03.798Z,11.73
2023-01-10T21:01:34.917Z,12.32
2023-01-10T21:04:05.663Z,11.85
2023-01-10T21:06:34.188Z,12.05
2023-01-10T21:09:02.886Z,11.27
2023-01-10T21:11:30.394Z,11.25
2023-01-10T21:13:57.932Z,10.52
2023-01-10T21:16:26.099Z,12.15
2023-01-10T21:18:53.978Z,11.67
2023-01-10T21:21:24.932Z,11.93
2023-01-10T21:23:55.245Z,10.43
2023-01-10T21:26:23.195Z,10.98
2023-01-10T21:28:51.061Z,11.50
2023-01-10T21:31:21.063Z,10.98
2023-01-10T21:33:49.701Z,11.30
2023-01-10T21:36:18.003Z,8.63
2023-01-10T21:38:45.671Z,10.55
2023-01-10T21:41:35.539Z,11.52
2023-01-10T21:44:05.159Z,10.07
2023-01-10T21:46:32.664Z,10.43
2023-01-10T21:49:05.090Z,10.95
2023-01-10T21:51:32.901Z,10.15
2023-01-10T21:54:00.474Z,10.27
2023-01-10T21:56:28.616Z,11.70
2023-01-10T21:58:56.461Z,8.00
2023-01-10T22:01:24.215Z,10.13
2023-01-10T22:03:52.220Z,10.27
2023-01-10T22:06:20.072Z,9.65
2023-01-10T22:08:47.925Z,10.40
2023-01-10T22:11:15.365Z,10.07
2023-01-10T22:13:42.908Z,10.27
2023-01-10T22:16:11.036Z,9.77
2023-01-10T22:18:38.607Z,9.90
2023-01-10T22:21:06.583Z,10.38
2023-01-10T22:23:34.789Z,9.35
2023-01-10T22:26:06.011Z,9.63
2023-01-10T22:28:33.896Z,9.63
2023-01-10T22:31:02.406Z,8.15
2023-01-10T22:33:34.207Z,8.35
2023-01-10T22:36:13.327Z,8.95
2023-01-10T22:38:41.743Z,10.52
2023-01-10T22:41:17.154Z,7.22
2023-01-10T22:43:45.174Z,9.27
2023-01-10T22:46:16.645Z,10.38
2023-01-10T22:48:44.777Z,9.98
2023-01-10T22:51:14.345Z,8.98
2023-01-10T22:53:42.748Z,9.63
2023-01-10T22:56:11.361Z,9.30
2023-01-10T22:58:39.613Z,9.05
2023-01-10T23:01:07.421Z,8.75
2023-01-10T23:03:35.469Z,8.88
2023-01-10T23:06:03.322Z,10.27
2023-01-10T23:08:31.525Z,8.18
2023-01-10T23:10:59.515Z,7.25
2023-01-10T23:13:27.513Z,9.50
2023-01-10T23:16:05.764Z,9.68
2023-01-10T23:18:34.059Z,9.07
2023-01-10T23:21:02.213Z,12.48
2023-01-10T23:23:30.363Z,11.32
2023-01-10T23:26:06.861Z,7.93
2023-01-10T23:28:40.341Z,9.50
2023-01-10T23:31:08.033Z,10.90
2023-01-10T23:33:36.122Z,13.20
2023-01-10T23:36:04.516Z,7.15
2023-01-10T23:38:32.420Z,7.40
2023-01-10T23:41:00.330Z,8.55
2023-01-10T23:43:28.128Z,9.35
2023-01-10T23:45:55.597Z,8.82
2023-01-10T23:48:23.357Z,8.88
2023-01-10T23:50:51.761Z,8.77
2023-01-10T23:53:19.711Z,8.90
2023-01-10T23:55:47.513Z,8.75
2023-01-10T23:58:17.030Z,8.65
